Time;durP1;ratioP1;P1;durP2;ratioP2;P2;SDS_P1;SDS_P2;PMS_P1;PMS_P2;Temp;Humidity;BMP_temperature;BMP_pressure;BME280_temperature;BME280_humidity;BME280_pressure;Samples;Min_cycle;Max_cycle;Signal;HPM_P1;HPM_P2
2022/04/12 00:00:45;;;;;;;1.17;1.10;;;6.80;28.00;;;;;;5086266;28;34218;-76
2022/04/12 00:03:11;;;;;;;1.33;1.23;;;6.80;28.20;;;;;;5069373;28;34388;-76
2022/04/12 00:05:39;;;;;;;2.15;1.40;;;6.80;28.20;;;;;;5086660;28;34162;-77
2022/04/12 00:08:06;;;;;;;1.35;1.25;;;6.80;28.60;;;;;;5085632;28;35762;-76
2022/04/12 00:10:32;;;;;;;1.55;1.30;;;6.70;28.50;;;;;;5086057;28;34118;-76
2022/04/12 00:12:59;;;;;;;4.03;1.70;;;6.70;28.60;;;;;;5068811;28;34216;-76
2022/04/12 00:15:26;;;;;;;1.30;1.20;;;6.70;28.90;;;;;;5104085;28;34491;-76
2022/04/12 00:20:35;;;;;;;1.83;1.48;;;6.70;29.10;;;;;;5087037;27;34191;-76
2022/04/12 00:23:01;;;;;;;3.95;1.73;;;6.60;29.00;;;;;;5069169;28;34398;-76
2022/04/12 00:25:28;;;;;;;2.63;1.50;;;6.60;29.90;;;;;;5085783;28;34620;-76
2022/04/12 00:27:55;;;;;;;2.60;1.33;;;6.50;29.30;;;;;;5085402;28;36473;-76
2022/04/12 00:30:23;;;;;;;4.15;1.60;;;6.50;29.40;;;;;;5103505;28;34022;-76
2022/04/12 00:32:52;;;;;;;3.17;1.50;;;6.50;29.60;;;;;;5085032;28;34129;-76
2022/04/12 00:35:19;;;;;;;1.95;1.40;;;6.40;29.50;;;;;;5069106;28;34446;-76
2022/04/12 00:37:46;;;;;;;2.63;1.42;;;6.40;29.60;;;;;;5085540;28;36445;-76
2022/04/12 00:40:13;;;;;;;1.73;1.40;;;6.40;29.60;;;;;;5106836;28;34055;-76
2022/04/12 00:42:39;;;;;;;1.45;1.35;;;6.30;30.00;;;;;;5106034;28;34105;-76
2022/04/12 00:45:06;;;;;;;2.03;1.55;;;6.30;30.00;;;;;;5089551;28;34477;-77
2022/04/12 00:47:32;;;;;;;1.50;1.40;;;6.30;30.10;;;;;;5107212;27;34615;-76
2022/04/12 00:49:58;;;;;;;1.50;1.40;;;6.30;30.20;;;;;;5109494;27;34327;-76
2022/04/12 00:52:26;;;;;;;1.80;1.55;;;6.20;30.00;;;;;;5092019;27;34115;-76
2022/04/12 00:54:53;;;;;;;2.45;1.42;;;6.20;30.30;;;;;;5101661;28;34107;-76
2022/04/12 00:57:19;;;;;;;1.70;1.60;;;6.20;30.30;;;;;;5093956;28;36564;-76
2022/04/12 00:59:46;;;;;;;3.03;1.58;;;6.10;30.30;;;;;;5106087;28;34137;-76
2022/04/12 01:02:12;;;;;;;1.63;1.33;;;6.10;30.70;;;;;;5106970;27;34372;-76
2022/04/12 01:04:38;;;;;;;2.03;1.58;;;6.10;30.70;;;;;;5088919;28;34462;-76
2022/04/12 01:07:04;;;;;;;2.20;1.60;;;6.10;30.70;;;;;;5105354;28;36820;-76
2022/04/12 01:09:30;;;;;;;2.13;1.63;;;6.10;30.80;;;;;;5105847;28;34067;-76
2022/04/12 01:11:57;;;;;;;1.63;1.52;;;6.10;30.90;;;;;;5114678;27;34301;-76
2022/04/12 01:14:25;;;;;;;3.00;1.35;;;6.10;31.30;;;;;;5127200;27;34212;-76
2022/04/12 01:16:52;;;;;;;1.80;1.52;;;6.10;31.00;;;;;;5126768;27;34413;-76
2022/04/12 01:19:18;;;;;;;2.75;1.40;;;6.00;31.30;;;;;;5109005;27;34464;-76
2022/04/12 01:22:04;;;;;;;1.52;1.40;;;6.00;31.90;;;;;;5108893;27;34313;-76
2022/04/12 01:24:32;;;;;;;1.35;1.25;;;6.00;34.20;;;;;;5071434;28;34279;-76
2022/04/12 01:26:58;;;;;;;1.70;1.60;;;6.00;31.50;;;;;;5087916;28;36497;-76
2022/04/12 01:29:25;;;;;;;2.47;1.70;;;6.00;31.40;;;;;;5094575;27;34325;-76
2022/04/12 01:31:51;;;;;;;1.77;1.48;;;6.00;31.40;;;;;;5097128;27;34199;-77
2022/04/12 01:34:17;;;;;;;1.73;1.63;;;6.00;31.50;;;;;;5103906;27;34504;-76
2022/04/12 01:36:43;;;;;;;2.00;1.27;;;6.00;31.40;;;;;;5108119;27;35817;-76
2022/04/12 01:39:09;;;;;;;1.58;1.48;;;6.00;31.80;;;;;;5090048;27;34104;-76
2022/04/12 01:41:35;;;;;;;1.73;1.50;;;6.00;32.00;;;;;;5108674;27;34284;-76
2022/04/12 01:44:01;;;;;;;1.83;1.73;;;6.00;32.60;;;;;;5091137;27;34313;-77
2022/04/12 01:46:27;;;;;;;1.55;1.45;;;6.00;32.20;;;;;;5108079;27;34244;-76
2022/04/12 01:48:53;;;;;;;2.97;1.70;;;6.00;32.30;;;;;;5104087;28;34253;-77
2022/04/12 01:51:19;;;;;;;1.45;1.20;;;6.00;32.40;;;;;;5089498;27;34240;-76
2022/04/12 01:53:45;;;;;;;1.40;1.27;;;6.00;32.70;;;;;;5101528;27;34089;-76
2022/04/12 01:56:11;;;;;;;1.90;1.80;;;6.00;32.90;;;;;;5104709;28;35987;-76
2022/04/12 01:58:38;;;;;;;1.50;1.40;;;6.00;32.90;;;;;;5105979;28;34312;-76
2022/04/12 02:01:04;;;;;;;1.88;1.55;;;6.00;32.90;;;;;;5105902;27;34374;-76
2022/04/12 02:03:30;;;;;;;2.42;1.90;;;6.00;33.00;;;;;;5099671;27;34552;-76
2022/04/12 02:05:56;;;;;;;1.67;1.52;;;6.10;33.00;;;;;;5087185;28;35463;-76
2022/04/12 02:08:22;;;;;;;1.80;1.63;;;6.10;32.90;;;;;;5096678;27;34136;-76
2022/04/12 02:10:49;;;;;;;2.25;2.05;;;6.10;32.90;;;;;;5112387;27;34603;-76
2022/04/12 02:13:16;;;;;;;2.20;1.58;;;6.10;33.00;;;;;;5105687;27;34518;-76
2022/04/12 02:15:43;;;;;;;1.75;1.60;;;6.10;32.90;;;;;;5096141;27;37018;-76
2022/04/12 02:18:09;;;;;;;1.65;1.55;;;6.20;32.70;;;;;;5115579;27;34265;-76
2022/04/12 02:20:35;;;;;;;1.60;1.50;;;6.20;32.70;;;;;;5100937;28;34394;-77
2022/04/12 02:23:01;;;;;;;1.70;1.60;;;6.20;32.80;;;;;;5114920;27;34094;-76
2022/04/12 02:25:26;;;;;;;3.50;1.60;;;6.20;32.90;;;;;;5091496;28;35460;-76
2022/04/12 02:27:53;;;;;;;1.95;1.67;;;6.20;33.00;;;;;;5121114;27;34279;-76
2022/04/12 02:30:18;;;;;;;2.05;1.63;;;6.20;33.00;;;;;;5107319;27;34087;-76
2022/04/12 02:32:44;;;;;;;2.10;1.60;;;6.20;33.10;;;;;;5104377;27;34711;-76
2022/04/12 02:35:12;;;;;;;2.50;1.50;;;6.20;33.30;;;;;;5111252;27;34512;-76
2022/04/12 02:37:38;;;;;;;2.08;1.73;;;6.20;33.20;;;;;;5104850;27;34309;-76
2022/04/12 02:40:05;;;;;;;2.10;1.38;;;6.10;33.20;;;;;;5087371;28;34364;-76
2022/04/12 02:42:31;;;;;;;1.73;1.63;;;6.10;33.40;;;;;;5081755;28;34377;-76
2022/04/12 02:44:57;;;;;;;1.90;1.55;;;6.10;33.30;;;;;;5090188;27;36504;-76
2022/04/12 02:47:25;;;;;;;2.47;1.20;;;6.10;33.40;;;;;;5081105;27;34259;-76
2022/04/12 02:49:52;;;;;;;1.65;1.50;;;6.10;33.60;;;;;;5107143;27;34301;-76
2022/04/12 02:52:18;;;;;;;2.15;1.48;;;6.10;33.60;;;;;;5074608;28;34624;-76
2022/04/12 02:54:44;;;;;;;1.42;1.33;;;6.10;33.40;;;;;;5086605;28;35750;-77
2022/04/12 02:57:10;;;;;;;1.63;1.50;;;6.10;33.50;;;;;;5105370;27;34232;-76
2022/04/12 02:59:36;;;;;;;2.95;1.55;;;6.10;33.50;;;;;;5106943;27;34033;-77
2022/04/12 03:02:02;;;;;;;2.28;1.63;;;6.10;33.50;;;;;;5089825;27;34100;-76
2022/04/12 03:04:28;;;;;;;1.48;1.38;;;6.10;33.50;;;;;;5090158;27;35603;-76
2022/04/12 03:06:53;;;;;;;3.08;1.55;;;6.10;33.60;;;;;;5106802;27;34056;-77
2022/04/12 03:09:19;;;;;;;1.50;1.40;;;6.10;33.70;;;;;;5086742;28;34089;-76
2022/04/12 03:11:45;;;;;;;2.08;1.50;;;6.10;33.60;;;;;;5090475;27;34587;-77
2022/04/12 03:14:11;;;;;;;2.88;1.50;;;6.10;33.70;;;;;;5106752;27;35599;-76
2022/04/12 03:16:37;;;;;;;1.52;1.42;;;6.00;33.60;;;;;;5109051;27;34071;-76
2022/04/12 03:19:03;;;;;;;1.55;1.40;;;6.00;33.80;;;;;;5116607;27;34743;-77
2022/04/12 03:21:29;;;;;;;2.00;1.65;;;6.00;33.70;;;;;;5124759;27;34438;-77
2022/04/12 03:23:55;;;;;;;1.58;1.30;;;6.00;33.80;;;;;;5085821;28;35756;-76
2022/04/12 03:26:21;;;;;;;1.80;1.65;;;6.00;33.90;;;;;;5093914;27;34162;-76
2022/04/12 03:28:47;;;;;;;1.52;1.35;;;5.90;34.00;;;;;;5124319;27;34101;-76
2022/04/12 03:31:13;;;;;;;3.63;1.77;;;5.90;34.30;;;;;;5106896;27;34123;-76
2022/04/12 03:33:39;;;;;;;1.40;1.30;;;5.90;34.40;;;;;;5094368;28;35589;-76
2022/04/12 03:36:05;;;;;;;3.25;1.45;;;5.80;34.30;;;;;;5116815;27;34095;-76
2022/04/12 03:38:31;;;;;;;3.70;1.27;;;5.80;34.20;;;;;;5076930;28;34180;-76
2022/04/12 03:40:59;;;;;;;1.98;1.30;;;5.80;34.40;;;;;;5085936;27;34250;-76
2022/04/12 03:43:24;;;;;;;2.10;1.50;;;5.70;34.50;;;;;;5085342;28;35546;-76
2022/04/12 03:45:50;;;;;;;1.80;1.50;;;5.70;34.50;;;;;;5075514;27;34058;-76
2022/04/12 03:48:16;;;;;;;1.35;1.20;;;5.70;34.40;;;;;;5089248;27;34021;-77
2022/04/12 03:50:42;;;;;;;1.52;1.42;;;5.60;34.40;;;;;;5106128;27;34372;-76
2022/04/12 03:53:08;;;;;;;2.47;1.75;;;5.60;34.50;;;;;;5124401;27;33980;-76
2022/04/12 03:55:38;;;;;;;1.35;1.25;;;5.50;34.40;;;;;;5106563;27;34483;-76
2022/04/12 03:58:06;;;;;;;1.50;1.40;;;5.50;34.50;;;;;;5089536;27;34390;-76
2022/04/12 04:00:33;;;;;;;1.50;1.40;;;5.40;34.60;;;;;;5086212;28;34110;-76
2022/04/12 04:02:59;;;;;;;1.45;1.35;;;5.30;34.70;;;;;;5066574;27;35788;-76
2022/04/12 04:05:26;;;;;;;2.80;1.50;;;5.30;34.70;;;;;;5101444;28;34289;-76
2022/04/12 04:07:53;;;;;;;1.35;1.25;;;5.20;34.50;;;;;;5086014;28;34215;-76
2022/04/12 04:10:20;;;;;;;2.10;1.58;;;5.20;34.60;;;;;;5104005;27;34115;-77
2022/04/12 04:12:46;;;;;;;1.40;1.30;;;5.10;34.70;;;;;;5104067;27;34291;-76
2022/04/12 04:15:12;;;;;;;2.28;1.40;;;5.10;34.80;;;;;;5064726;27;34035;-76
2022/04/12 04:17:43;;;;;;;4.22;1.60;;;5.00;35.40;;;;;;5128157;27;34045;-76
2022/04/12 04:20:10;;;;;;;1.95;1.40;;;5.00;35.30;;;;;;5103645;28;34394;-76
2022/04/12 04:22:37;;;;;;;1.38;1.27;;;4.90;35.10;;;;;;5123944;27;34920;-76
2022/04/12 04:25:03;;;;;;;1.20;1.10;;;4.80;35.00;;;;;;5109479;27;34218;-76
2022/04/12 04:27:29;;;;;;;1.27;1.20;;;4.80;35.00;;;;;;5115929;27;34090;-76
2022/04/12 04:29:56;;;;;;;1.40;1.30;;;4.70;35.10;;;;;;5117186;27;34085;-76
2022/04/12 04:32:23;;;;;;;1.38;1.27;;;4.70;35.60;;;;;;5077335;27;36399;-76
2022/04/12 04:34:49;;;;;;;1.38;1.15;;;4.60;35.00;;;;;;5109305;27;34354;-76
2022/04/12 04:37:14;;;;;;;1.27;1.17;;;4.60;35.10;;;;;;5099775;27;34182;-76
2022/04/12 04:39:41;;;;;;;1.60;1.40;;;4.50;35.80;;;;;;5105800;28;34127;-76
2022/04/12 04:42:07;;;;;;;2.00;1.20;;;4.50;35.60;;;;;;5099494;27;36503;-76
2022/04/12 04:44:33;;;;;;;2.78;2.15;;;4.40;35.40;;;;;;5108847;27;34406;-76
2022/04/12 04:46:59;;;;;;;2.78;1.70;;;4.40;35.40;;;;;;5104587;28;34173;-76
2022/04/12 04:49:25;;;;;;;1.25;1.08;;;4.40;35.30;;;;;;5108041;27;34365;-76
2022/04/12 04:51:51;;;;;;;2.28;1.55;;;4.40;35.30;;;;;;5127669;27;34221;-76
2022/04/12 04:54:17;;;;;;;1.30;1.20;;;4.30;35.60;;;;;;5105587;28;34198;-76
2022/04/12 04:56:43;;;;;;;1.60;1.40;;;4.30;35.70;;;;;;5072073;28;34321;-76
2022/04/12 04:59:11;;;;;;;1.55;1.42;;;4.20;35.70;;;;;;5075222;28;34359;-76
2022/04/12 05:01:37;;;;;;;1.60;1.35;;;4.20;36.00;;;;;;5107196;27;34306;-76
2022/04/12 05:04:03;;;;;;;1.65;1.38;;;4.10;36.10;;;;;;5126426;27;34288;-77
2022/04/12 05:06:29;;;;;;;1.35;1.25;;;4.10;36.00;;;;;;5090740;27;34426;-76
2022/04/12 05:08:55;;;;;;;2.00;1.30;;;4.10;36.00;;;;;;5123594;27;34314;-76
2022/04/12 05:11:21;;;;;;;2.50;1.58;;;4.10;36.10;;;;;;5075220;27;35626;-76
2022/04/12 05:13:47;;;;;;;1.98;1.13;;;4.20;36.10;;;;;;5104609;27;34247;-76
2022/04/12 05:16:13;;;;;;;1.60;1.50;;;4.20;35.90;;;;;;5108363;27;34255;-76
2022/04/12 05:18:39;;;;;;;1.40;1.30;;;4.20;35.90;;;;;;5092002;27;34509;-76
2022/04/12 05:21:05;;;;;;;1.83;1.48;;;4.30;35.90;;;;;;5103918;27;36314;-76
2022/04/12 05:23:31;;;;;;;1.50;1.30;;;4.30;35.80;;;;;;5089658;27;34385;-76
2022/04/12 05:25:56;;;;;;;1.50;1.40;;;4.40;35.90;;;;;;5120076;27;34206;-76
2022/04/12 05:28:23;;;;;;;4.07;1.67;;;4.40;35.80;;;;;;5108171;27;34108;-76
2022/04/12 05:30:49;;;;;;;5.43;1.77;;;4.50;35.90;;;;;;5126404;27;34456;-76
2022/04/12 05:33:15;;;;;;;2.88;1.42;;;4.50;35.90;;;;;;5089716;27;34211;-76
2022/04/12 05:35:41;;;;;;;2.65;1.95;;;4.60;35.90;;;;;;5087867;28;34159;-76
2022/04/12 05:38:08;;;;;;;1.83;1.73;;;4.70;35.80;;;;;;5119746;27;34558;-76
2022/04/12 05:40:34;;;;;;;1.88;1.70;;;4.80;35.80;;;;;;5107882;27;36352;-76
2022/04/12 05:43:00;;;;;;;3.38;1.80;;;4.80;35.50;;;;;;5107226;27;34420;-76
2022/04/12 05:45:26;;;;;;;4.40;1.67;;;5.00;35.40;;;;;;5106361;27;34289;-77
2022/04/12 05:47:54;;;;;;;3.88;1.90;;;5.10;35.50;;;;;;5096966;27;34554;-76
2022/04/12 05:50:22;;;;;;;3.05;1.40;;;5.20;35.30;;;;;;5084524;27;36618;-77
2022/04/12 05:52:49;;;;;;;4.38;1.90;;;5.30;35.20;;;;;;5087572;28;34334;-76
2022/04/12 05:55:17;;;;;;;1.85;1.45;;;5.40;35.70;;;;;;5105173;27;34271;-77
2022/04/12 05:57:59;;;;;;;2.45;1.60;;;5.50;35.10;;;;;;5126804;27;34041;-77
2022/04/12 06:00:27;;;;;;;4.82;1.58;;;5.70;37.20;;;;;;5107576;27;35829;-77
2022/04/12 06:02:54;;;;;;;4.32;1.70;;;5.90;34.90;;;;;;5107547;27;34028;-77
2022/04/12 06:05:21;;;;;;;3.85;1.75;;;6.10;34.60;;;;;;5098406;27;34657;-77
2022/04/12 06:07:48;;;;;;;1.65;1.55;;;6.30;34.30;;;;;;5089005;28;34091;-77
2022/04/12 06:10:16;;;;;;;2.17;1.63;;;6.60;33.70;;;;;;5105089;27;35615;-77
2022/04/12 06:12:42;;;;;;;2.08;1.80;;;6.90;33.50;;;;;;5107831;27;34152;-76
2022/04/12 06:15:09;;;;;;;2.38;1.90;;;7.20;32.80;;;;;;5107765;27;34415;-77
2022/04/12 06:17:36;;;;;;;4.40;1.75;;;7.50;32.50;;;;;;5108591;27;34363;-76
2022/04/12 06:20:06;;;;;;;3.55;2.67;;;7.90;32.20;;;;;;5074220;27;35637;-76
2022/04/12 06:22:32;;;;;;;3.42;2.83;;;8.30;31.40;;;;;;5103238;28;34159;-76
2022/04/12 06:24:58;;;;;;;3.65;2.97;;;8.80;30.80;;;;;;5070223;28;34286;-77
2022/04/12 06:27:40;;;;;;;3.17;2.50;;;9.20;30.30;;;;;;5087298;28;34082;-76
2022/04/12 06:30:11;;;;;;;2.72;2.30;;;9.70;31.20;;;;;;5105045;28;34880;-76
2022/04/12 06:32:37;;;;;;;5.90;2.80;;;10.00;29.10;;;;;;5099278;27;34298;-77
2022/04/12 06:35:05;;;;;;;3.72;2.92;;;10.10;28.60;;;;;;5126064;27;34236;-76
2022/04/12 06:37:32;;;;;;;3.22;2.78;;;10.30;28.70;;;;;;5079933;28;34642;-76
2022/04/12 06:39:58;;;;;;;2.83;2.60;;;10.40;28.50;;;;;;5070381;28;35981;-76
2022/04/12 06:42:25;;;;;;;4.25;2.90;;;10.50;28.50;;;;;;5053546;28;34215;-76
2022/04/12 06:44:52;;;;;;;3.53;2.63;;;10.60;28.60;;;;;;5105259;28;34059;-77
2022/04/12 06:47:18;;;;;;;3.65;2.85;;;10.70;28.70;;;;;;5105566;28;34161;-76
2022/04/12 06:49:47;;;;;;;4.47;3.08;;;10.80;28.70;;;;;;5070073;28;35786;-77
2022/04/12 06:52:14;;;;;;;5.07;2.90;;;10.90;28.80;;;;;;5079007;27;34025;-77
2022/04/12 06:54:41;;;;;;;3.03;2.70;;;11.00;28.50;;;;;;5107117;27;34104;-76
2022/04/12 06:57:07;;;;;;;4.28;2.72;;;11.30;28.60;;;;;;5107544;27;34434;-76
2022/04/12 06:59:34;;;;;;;3.33;2.40;;;11.70;28.10;;;;;;5099207;28;34530;-77
2022/04/12 07:02:01;;;;;;;7.00;2.42;;;12.10;27.40;;;;;;5104957;28;34273;-77
2022/04/12 07:04:29;;;;;;;5.05;2.33;;;12.50;26.50;;;;;;5104653;27;34076;-76
2022/04/12 07:06:56;;;;;;;2.53;2.33;;;12.90;25.80;;;;;;5107082;27;34150;-77
2022/04/12 07:09:30;;;;;;;2.50;2.15;;;13.30;25.50;;;;;;5100919;28;36343;-77
2022/04/12 07:11:57;;;;;;;1.65;1.55;;;13.60;24.00;;;;;;5100902;27;34097;-76
2022/04/12 07:14:24;;;;;;;2.20;2.00;;;13.60;23.90;;;;;;5118024;27;34449;-77
2022/04/12 07:16:50;;;;;;;2.58;1.52;;;13.60;23.70;;;;;;5092307;27;34103;-76
2022/04/12 07:19:16;;;;;;;1.75;1.60;;;13.60;24.10;;;;;;5106164;27;35680;-76
2022/04/12 07:21:43;;;;;;;1.40;1.30;;;13.60;24.50;;;;;;5107555;27;34083;-76
2022/04/12 07:24:10;;;;;;;2.78;1.50;;;13.60;24.30;;;;;;5095693;28;34391;-77
2022/04/12 07:26:36;;;;;;;1.75;1.65;;;13.70;24.60;;;;;;5104740;28;34308;-76
2022/04/12 07:29:03;;;;;;;1.30;1.20;;;13.70;24.40;;;;;;5100701;27;36484;-76
2022/04/12 07:31:29;;;;;;;2.67;1.80;;;13.80;24.30;;;;;;5103013;28;34546;-76
2022/04/12 07:33:56;;;;;;;2.90;2.05;;;13.90;24.50;;;;;;5103127;28;34578;-77
2022/04/12 07:36:22;;;;;;;5.68;2.00;;;13.90;24.70;;;;;;5104434;28;34157;-76
2022/04/12 07:38:49;;;;;;;5.82;2.20;;;13.90;25.10;;;;;;5103954;28;34587;-76
2022/04/12 07:41:16;;;;;;;2.08;1.80;;;13.90;25.40;;;;;;5089661;28;34079;-77
2022/04/12 07:43:42;;;;;;;3.17;1.95;;;13.80;25.60;;;;;;5086774;28;34059;-77
2022/04/12 07:46:09;;;;;;;12.20;2.38;;;13.80;25.80;;;;;;5086352;28;34403;-77
2022/04/12 07:48:35;;;;;;;4.25;1.80;;;13.80;25.90;;;;;;5104148;27;34146;-76
2022/04/12 07:51:00;;;;;;;2.90;2.20;;;13.90;26.20;;;;;;5104238;28;34392;-77
2022/04/12 07:53:26;;;;;;;3.72;2.10;;;14.00;26.00;;;;;;5068609;28;34239;-77
2022/04/12 07:55:52;;;;;;;2.13;1.80;;;14.10;26.00;;;;;;5051127;28;34182;-77
2022/04/12 07:58:18;;;;;;;3.33;2.38;;;14.20;25.90;;;;;;5084835;28;34150;-77
2022/04/12 08:00:44;;;;;;;1.67;1.45;;;14.40;25.90;;;;;;5085986;28;34150;-77
2022/04/12 08:03:10;;;;;;;2.53;1.88;;;14.60;25.60;;;;;;5069975;28;34105;-77
2022/04/12 08:05:36;;;;;;;2.78;1.70;;;14.80;25.50;;;;;;5083529;28;34066;-77
2022/04/12 08:08:04;;;;;;;3.10;1.85;;;15.10;25.50;;;;;;5068819;28;36568;-77
2022/04/12 08:10:30;;;;;;;3.47;1.67;;;15.40;25.10;;;;;;5085469;28;34358;-77
2022/04/12 08:12:57;;;;;;;2.83;1.75;;;15.70;24.90;;;;;;5082443;28;34288;-77
2022/04/12 08:15:24;;;;;;;3.15;1.88;;;16.00;25.30;;;;;;5049228;28;34093;-77
2022/04/12 08:17:51;;;;;;;2.90;1.85;;;16.30;24.20;;;;;;5085265;28;35689;-77
2022/04/12 08:20:16;;;;;;;2.63;1.83;;;16.50;23.90;;;;;;5086060;28;35238;-77
2022/04/12 08:22:43;;;;;;;3.30;1.63;;;16.80;23.70;;;;;;5086313;28;34190;-77
2022/04/12 08:25:10;;;;;;;2.58;1.80;;;17.00;23.70;;;;;;5085557;28;34302;-77
2022/04/12 08:27:37;;;;;;;1.95;1.55;;;17.20;23.60;;;;;;5055522;28;35622;-78
2022/04/12 08:30:07;;;;;;;7.20;1.92;;;17.40;23.60;;;;;;5065318;28;34098;-77
2022/04/12 08:32:35;;;;;;;2.20;1.50;;;17.60;23.30;;;;;;5050599;28;34242;-77
2022/04/12 08:35:01;;;;;;;2.13;1.70;;;17.90;23.40;;;;;;5086002;28;34163;-77
2022/04/12 08:37:27;;;;;;;6.43;1.92;;;18.20;23.20;;;;;;5105438;27;34298;-77
2022/04/12 08:39:53;;;;;;;6.18;1.65;;;18.40;23.00;;;;;;5091168;27;34086;-77
2022/04/12 08:42:21;;;;;;;5.07;1.70;;;18.60;22.40;;;;;;5088965;27;34666;-78
2022/04/12 08:44:49;;;;;;;3.70;1.70;;;18.80;20.70;;;;;;5124426;27;34404;-77
2022/04/12 08:47:18;;;;;;;2.90;1.48;;;19.00;19.70;;;;;;5088830;27;36519;-77
2022/04/12 08:49:44;;;;;;;1.60;1.42;;;19.30;18.80;;;;;;5089773;27;34120;-77
2022/04/12 08:52:12;;;;;;;2.42;1.50;;;19.70;18.90;;;;;;5105395;27;34428;-78
2022/04/12 08:54:39;;;;;;;1.73;1.40;;;19.90;17.90;;;;;;5102486;28;34409;-77
2022/04/12 08:57:06;;;;;;;4.30;1.40;;;20.10;17.60;;;;;;5103424;27;34351;-78
2022/04/12 08:59:32;;;;;;;3.60;1.20;;;20.10;16.70;;;;;;5104406;27;34201;-77
2022/04/12 09:01:59;;;;;;;3.75;1.30;;;20.30;17.00;;;;;;5105821;28;34028;-77
2022/04/12 09:04:27;;;;;;;2.28;1.50;;;20.40;16.70;;;;;;5105680;28;34757;-77
2022/04/12 09:06:57;;;;;;;1.77;1.40;;;20.50;16.60;;;;;;5105577;28;35824;-77
2022/04/12 09:09:25;;;;;;;1.25;1.00;;;20.50;14.90;;;;;;5110474;27;34120;-77
2022/04/12 09:12:09;;;;;;;2.40;1.40;;;20.50;15.30;;;;;;5097506;28;34195;-77
2022/04/12 09:14:54;;;;;;;2.75;1.27;;;20.60;12.30;;;;;;5083437;27;34127;-77
2022/04/12 09:17:33;;;;;;;1.70;1.02;;;20.80;12.40;;;;;;5081283;28;35087;-77
2022/04/12 09:20:00;;;;;;;2.58;1.10;;;21.00;14.10;;;;;;5088754;28;34238;-77
2022/04/12 09:22:28;;;;;;;2.85;1.00;;;21.20;14.90;;;;;;5092625;28;34829;-77
2022/04/12 09:24:58;;;;;;;3.28;0.95;;;21.30;14.20;;;;;;5092335;27;34157;-78
2022/04/12 09:27:27;;;;;;;1.17;1.08;;;21.40;13.00;;;;;;5108323;27;35609;-77
2022/04/12 09:30:01;;;;;;;8.73;1.40;;;21.40;12.40;;;;;;5128120;27;34044;-78
2022/04/12 09:32:28;;;;;;;4.53;1.00;;;21.50;9.10;;;;;;5092234;27;34230;-77
2022/04/12 09:34:56;;;;;;;2.78;1.20;;;21.60;13.90;;;;;;5108915;27;34080;-77
2022/04/12 09:37:25;;;;;;;3.00;0.93;;;21.90;13.30;;;;;;5127963;27;34222;-78
2022/04/12 09:40:03;;;;;;;1.77;1.05;;;22.10;11.70;;;;;;5109647;27;34248;-78
2022/04/12 09:42:49;;;;;;;1.83;1.00;;;22.20;8.80;;;;;;5104280;28;34163;-77
2022/04/12 09:45:22;;;;;;;1.05;0.95;;;22.40;7.60;;;;;;5090261;28;34222;-78
2022/04/12 09:47:50;;;;;;;0.75;0.75;;;22.40;9.10;;;;;;5101688;27;34101;-77
2022/04/12 09:50:20;;;;;;;2.83;1.02;;;22.50;11.60;;;;;;5074662;27;34053;-77
2022/04/12 09:52:59;;;;;;;2.20;1.17;;;22.70;9.90;;;;;;5106538;27;34459;-76
2022/04/12 09:55:42;;;;;;;1.15;0.90;;;23.00;6.90;;;;;;5084395;28;34546;-77
2022/04/12 09:58:10;;;;;;;2.17;1.02;;;23.20;5.70;;;;;;5096017;27;36115;-78
2022/04/12 10:00:38;;;;;;;2.05;1.20;;;23.30;8.70;;;;;;5072359;28;34126;-76
2022/04/12 10:03:06;;;;;;;1.73;0.98;;;23.40;10.40;;;;;;5091848;27;35380;-78
2022/04/12 10:05:32;;;;;;;1.48;0.90;;;23.20;6.90;;;;;;5109524;27;34476;-76
2022/04/12 10:08:00;;;;;;;1.35;1.00;;;23.10;9.60;;;;;;5091803;27;36598;-76
2022/04/12 10:10:27;;;;;;;1.42;1.00;;;23.00;8.60;;;;;;5091338;27;34039;-76
2022/04/12 10:12:54;;;;;;;2.30;1.17;;;23.10;9.50;;;;;;5108105;27;34682;-77
2022/04/12 10:15:21;;;;;;;1.52;1.00;;;23.00;7.90;;;;;;5087738;28;34552;-77
2022/04/12 10:17:49;;;;;;;2.22;1.15;;;23.00;8.80;;;;;;5072505;28;36023;-76
2022/04/12 10:20:17;;;;;;;1.15;0.95;;;23.10;9.00;;;;;;5097713;27;34195;-77
2022/04/12 10:22:45;;;;;;;1.92;1.08;;;23.10;7.40;;;;;;5091582;27;34161;-76
2022/04/12 10:25:16;;;;;;;2.15;1.00;;;23.10;8.60;;;;;;5108167;27;34451;-77
2022/04/12 10:27:42;;;;;;;1.50;1.02;;;23.00;8.20;;;;;;5097550;27;36173;-77
2022/04/12 10:30:27;;;;;;;2.10;0.90;;;22.80;8.60;;;;;;5098249;27;34385;-77
2022/04/12 10:33:17;;;;;;;2.55;1.25;;;22.80;2.90;;;;;;5097259;28;34187;-76
2022/04/12 10:36:02;;;;;;;2.10;1.20;;;22.80;2.40;;;;;;5107940;27;34415;-77
2022/04/12 10:38:44;;;;;;;1.77;1.00;;;23.00;1.40;;;;;;5079639;28;35528;-78
2022/04/12 10:41:15;;;;;;;1.10;1.00;;;23.10;2.60;;;;;;5105992;27;34180;-76
2022/04/12 10:43:41;;;;;;;3.22;1.30;;;23.30;6.00;;;;;;5083175;28;35221;-77
2022/04/12 10:46:12;;;;;;;2.03;1.20;;;23.30;7.40;;;;;;5089500;27;34485;-75
2022/04/12 10:48:38;;;;;;;4.68;1.17;;;23.30;6.70;;;;;;5126674;27;34183;-77
2022/04/12 10:51:05;;;;;;;3.08;1.20;;;23.40;7.40;;;;;;5107973;27;35165;-77
2022/04/12 10:53:53;;;;;;;2.47;1.35;;;23.60;7.00;;;;;;5087392;28;34159;-76
2022/04/12 10:56:25;;;;;;;2.35;1.15;;;23.60;3.20;;;;;;5091231;28;34171;-77
2022/04/12 10:58:54;;;;;;;3.53;0.98;;;23.70;3.90;;;;;;5090997;27;35634;-77
2022/04/12 11:01:35;;;;;;;1.40;0.98;;;23.80;5.90;;;;;;5090360;28;34657;-77
2022/04/12 11:04:03;;;;;;;1.42;1.02;;;23.90;2.00;;;;;;5079457;27;35929;-76
2022/04/12 11:06:32;;;;;;;2.20;1.23;;;24.20;6.70;;;;;;5104170;28;34357;-77
2022/04/12 11:09:17;;;;;;;2.80;0.95;;;24.30;5.90;;;;;;5072321;28;36551;-79
2022/04/12 11:11:52;;;;;;;1.23;1.00;;;24.00;3.30;;;;;;5106351;27;34079;-77
2022/04/12 11:14:36;;;;;;;2.55;1.02;;;24.00;5.80;;;;;;5104151;28;34172;-77
2022/04/12 11:17:07;;;;;;;2.28;0.93;;;23.90;2.30;;;;;;5093593;27;34115;-78
2022/04/12 11:19:51;;;;;;;1.80;1.10;;;24.20;6.70;;;;;;5087686;27;34580;-77
2022/04/12 11:22:18;;;;;;;1.63;0.82;;;24.40;2.90;;;;;;5092720;28;34090;-78
2022/04/12 11:25:20;;;;;;;1.30;1.05;;;24.40;6.20;;;;;;5099010;28;34207;-77
2022/04/12 11:27:54;;;;;;;2.75;0.95;;;24.40;2.90;;;;;;5079488;27;34005;-77
2022/04/12 11:30:20;;;;;;;2.05;1.50;;;24.40;6.60;;;;;;5104064;27;36461;-77
2022/04/12 11:32:46;;;;;;;3.70;1.08;;;24.40;6.60;;;;;;5073284;27;34265;-78
2022/04/12 11:35:13;;;;;;;1.25;0.80;;;24.40;6.20;;;;;;5091377;27;34186;-77
2022/04/12 11:37:40;;;;;;;1.30;0.73;;;24.20;6.10;;;;;;5099972;28;34137;-79
2022/04/12 11:40:06;;;;;;;0.88;0.80;;;24.30;6.00;;;;;;5087036;28;36260;-77
2022/04/12 11:42:33;;;;;;;0.75;0.75;;;24.40;5.90;;;;;;5094438;27;35290;-78
2022/04/12 11:45:00;;;;;;;0.75;0.75;;;24.50;5.80;;;;;;5093209;27;34288;-77
2022/04/12 11:47:28;;;;;;;4.40;0.90;;;24.70;5.90;;;;;;5103207;27;34229;-77
2022/04/12 11:49:54;;;;;;;6.43;1.10;;;24.80;5.20;;;;;;5087911;28;36624;-79
2022/04/12 11:52:20;;;;;;;1.10;0.77;;;25.00;5.60;;;;;;5087320;28;34261;-78
2022/04/12 11:54:48;;;;;;;2.10;0.85;;;25.00;5.40;;;;;;5106281;27;34215;-78
2022/04/12 11:57:22;;;;;;;0.90;0.80;;;24.70;4.70;;;;;;5077622;27;34096;-77
2022/04/12 11:59:51;;;;;;;3.75;0.70;;;24.70;2.90;;;;;;5107975;27;36392;-77
2022/04/12 12:02:19;;;;;;;3.95;0.73;;;24.70;4.80;;;;;;5070161;28;34011;-77
2022/04/12 12:04:56;;;;;;;1.00;0.90;;;24.60;4.90;;;;;;5105596;27;34325;-77
2022/04/12 12:07:23;;;;;;;1.25;0.90;;;24.70;1.00;;;;;;5118839;27;34139;-78
2022/04/12 12:09:57;;;;;;;0.57;0.57;;;24.80;5.00;;;;;;5087600;28;36623;-78
2022/04/12 12:12:45;;;;;;;2.40;0.90;;;24.70;1.70;;;;;;5087328;28;34385;-77
2022/04/12 12:15:22;;;;;;;2.10;1.00;;;24.70;1.00;;;;;;5072853;28;34102;-77
2022/04/12 12:17:50;;;;;;;1.25;0.98;;;24.80;1.00;;;;;;5113225;27;34364;-77
2022/04/12 12:20:18;;;;;;;2.33;0.95;;;24.70;4.30;;;;;;5085923;28;36552;-77
2022/04/12 12:22:46;;;;;;;4.30;1.20;;;24.80;4.00;;;;;;5098520;27;34078;-77
2022/04/12 12:25:23;;;;;;;4.20;0.70;;;24.80;4.00;;;;;;5089612;27;34104;-78
2022/04/12 12:27:51;;;;;;;2.63;1.17;;;24.80;3.70;;;;;;5106817;27;34309;-77
2022/04/12 12:30:20;;;;;;;1.23;0.80;;;24.80;3.40;;;;;;5085805;28;35901;-77
2022/04/12 12:32:50;;;;;;;0.80;0.80;;;25.00;3.20;;;;;;5077102;28;34056;-78
2022/04/12 12:35:17;;;;;;;3.15;0.80;;;25.00;4.30;;;;;;5094587;27;34204;-78
2022/04/12 12:37:45;;;;;;;2.92;0.90;;;25.00;4.10;;;;;;5111483;27;34119;-79
2022/04/12 12:40:19;;;;;;;4.20;0.98;;;24.90;2.80;;;;;;5093347;27;35664;-78
2022/04/12 12:42:47;;;;;;;6.80;0.80;;;24.90;1.00;;;;;;5095026;27;34148;-77
2022/04/12 12:45:16;;;;;;;1.17;0.80;;;24.80;3.20;;;;;;5111400;27;34018;-77
2022/04/12 12:47:44;;;;;;;4.30;0.82;;;24.80;3.40;;;;;;5103076;27;34284;-77
2022/04/12 12:50:12;;;;;;;6.60;0.90;;;24.80;2.90;;;;;;5128803;27;34336;-77
2022/04/12 12:52:39;;;;;;;2.63;0.90;;;24.90;3.70;;;;;;5093705;27;34363;-77
2022/04/12 12:55:09;;;;;;;2.83;0.90;;;24.90;3.50;;;;;;5111370;27;34408;-78
2022/04/12 12:57:43;;;;;;;1.10;0.90;;;24.90;1.90;;;;;;5112161;27;34174;-79
2022/04/12 13:00:10;;;;;;;1.63;0.93;;;24.80;1.40;;;;;;5109168;27;35604;-78
2022/04/12 13:02:37;;;;;;;1.38;0.80;;;24.80;3.50;;;;;;5127830;27;34034;-77